Guarulhos - Sao Paulo Airport Marriott Heliport

BR-0017 · São Paulo, Brazil

METAR history BR-0017 · Guarulhos - Sao Paulo Airport Marriott Heliport

Below you see METARs of the last few days. Select a year to browse through older METARs, from the year 2007 onwards.

April 12, 2024

Time Code Weather Temp. Visibility Ceiling Wind METAR/SPECI
17:00
V
25 °C 10 km+ - 130° 130° 8 kt METAR SBGR 122000Z 13008KT 9999 FEW043 25/19 Q1018
16:00
V
27 °C 10 km+ - 120° 120° 8 kt METAR SBGR 121900Z 12008KT 9999 SCT040 27/19 Q1018
15:00
V
27 °C 10 km+ - 100° 100° 6 kt METAR SBGR 121800Z 10006KT 9999 SCT040 27/18 Q1019
14:00
V
28 °C 10 km+ 7,000 ft 090° 090° 7 kt METAR SBGR 121700Z 09007KT 9999 SCT040 BKN070 28/18 Q1020
13:00
V
27 °C 10 km+ 3,300 ft 070° 070° 10 kt METAR SBGR 121600Z 07010KT 9999 BKN033 BKN070 27/18 Q1020
12:00
M
26 °C 10 km+ 3,000 ft 080° 080° 9 kt METAR SBGR 121500Z 08009KT 9999 BKN030 BKN070 26/18 Q1021
11:00
M
24 °C 10 km+ 2,300 ft 070° 070° 9 kt METAR SBGR 121400Z 07009KT 9999 BKN023 24/18 Q1022
10:00
M
24 °C 10 km+ 1,700 ft 070° 070° 11 kt METAR SBGR 121300Z 07011KT 9999 BKN017 24/19 Q1022
09:00
M
22 °C 10 km+ 1,500 ft 070° 070° 8 kt METAR SBGR 121200Z 07008KT 9999 BKN015 22/19 Q1022
08:00
V
21 °C 10 km+ - 080° 080° 6 kt METAR SBGR 121100Z 08006KT 9999 FEW015 21/19 Q1021
07:00
V
19 °C 10 km+ - 070° 070° 4 kt METAR SBGR 121000Z 07004KT CAVOK 19/18 Q1020
06:00
V
19 °C 9 km - 080° 080° 4 kt METAR SBGR 120900Z 08004KT 9000 NSC 19/18 Q1020
05:00
V
20 °C 10 km+ 10,000 ft 120° 120° 5 kt METAR SBGR 120800Z 12005KT 9999 FEW030 BKN100 20/18 Q1020
04:00
V
20 °C 10 km+ - 100° 100° 4 kt METAR SBGR 120700Z 10004KT CAVOK 20/18 Q1019
03:00
V
20 °C 10 km+ - 130° 130° 4 kt METAR SBGR 120600Z 13004KT CAVOK 20/18 Q1020
02:00
V
20 °C 10 km+ - 120° 120° 4 kt METAR SBGR 120500Z 12004KT CAVOK 20/18 Q1020
01:00
V
21 °C 10 km+ - 130° 130° 4 kt METAR SBGR 120400Z 13004KT CAVOK 21/18 Q1020
00:00
V
21 °C 10 km+ 5,000 ft 110° 110° 6 kt METAR SBGR 120300Z 11006KT 9999 SCT025 BKN050 21/19 Q1021

April 11, 2024

Time Code Weather Temp. Visibility Ceiling Wind METAR/SPECI
23:00
M
21 °C 10 km+ 1,100 ft 120° 120° 5 kt METAR SBGR 120200Z 12005KT 9999 FEW007 OVC011 21/20 Q1021
22:00
M
21 °C 6 km 1,100 ft 110° 110° 5 kt METAR SBGR 120100Z 11005KT 6000 -DZ SCT007 OVC011 21/20 Q1021
21:00
M
21 °C 8 km 1,100 ft 130° 130° 5 kt METAR SBGR 120000Z 13005KT 8000 FEW009 BKN011 21/20 Q1021
20:00
I
21 °C 8 km 900 ft 160° 160° 6 kt METAR SBGR 112300Z 16006KT 8000 BKN009 21/20 Q1020
19:00
I
21 °C 7 km 800 ft 170° 170° 6 kt METAR SBGR 112200Z 17006KT 7000 BKN008 21/20 Q1019
18:00
I
21 °C 5 km 900 ft 160° 160° 9 kt METAR SBGR 112100Z 16009KT 5000 BR BKN009 OVC100 21/20 Q1018
17:40
I
21 °C 5 km 900 ft 160° 160° 8 kt METAR SBGR 112040Z 16008KT 5000 BR FEW007 BKN009 OVC100 21/20 Q1018
17:00
M
22 °C 5 km 1,100 ft 170° 170° 8 kt METAR SBGR 112000Z 17008KT 5000 BR BKN011 OVC100 22/20 Q1018
16:00
M
23 °C 6 km 1,500 ft 170° 170° 8 kt METAR SBGR 111900Z 17008KT 6000 SCT013 BKN015 OVC100 23/20 Q1018
15:00
M
25 °C 5 km 1,500 ft 160° 160° 10 kt METAR SBGR 111800Z 16010KT 5000 HZ SCT013 BKN015 OVC100 25/21 Q1017
14:00
M
27 °C 7 km 3,000 ft 110° 110° 4 kt METAR SBGR 111700Z 11004KT 7000 BKN030 OVC100 27/20 Q1017
13:00
V
26 °C 10 km+ 10,000 ft 170° 170° 5 kt METAR SBGR 111600Z 17005KT 9999 SCT023 BKN100 26/20 Q1018
12:00
V
26 °C 10 km+ - 130° 130° 3 kt METAR SBGR 111500Z 13003KT 9999 SCT021 26/21 Q1018
11:00
M
24 °C 9 km 1,700 ft 130° 130° 4 kt METAR SBGR 111400Z 13004KT 9000 BKN017 24/20 Q1019
10:40
M
24 °C 9 km 1,700 ft 100° 100° 3 kt METAR SBGR 111340Z 10003KT 9000 BKN017 24/20 Q1020
10:00
M
23 °C 5 km 1,300 ft 150° 150° 2 kt METAR SBGR 111300Z 15002KT 5000 BR OVC013 23/20 Q1020
09:00
I
22 °C 5 km 900 ft 180° 180° 2 kt METAR SBGR 111200Z 18002KT 5000 BR OVC009 22/20 Q1019
08:00
I
21 °C 5 km 700 ft 160° 160° 4 kt METAR SBGR 111100Z 16004KT 5000 BR OVC007 21/20 Q1019
07:00
I
20 °C 5 km 500 ft 060° 060° 5 kt METAR SBGR 111000Z 06005KT 5000 BR OVC005 20/20 Q1018
06:00
L
20 °C 5 km 400 ft 080° 080° 5 kt METAR SBGR 110900Z 08005KT 5000 BR OVC004 20/20 Q1017
05:10
L
20 °C 5 km 400 ft 070° 070° 8 kt METAR SBGR 110810Z 07008KT 5000 BR OVC004 20/20 Q1016
05:00
I
20 °C 6 km 600 ft 090° 090° 5 kt METAR SBGR 110800Z 09005KT 6000 BKN006 20/20 Q1016
04:00
M
19 °C 6 km - 160° 160° 1 kt METAR SBGR 110700Z 16001KT 6000 NSC 19/19 Q1016
03:00
M
20 °C 7 km - 080° 080° 3 kt METAR SBGR 110600Z 08003KT 7000 FEW010 20/19 Q1017
02:00
V
19 °C 8 km - 120° 120° 1 kt METAR SBGR 110500Z 12001KT 8000 SCT010 19/19 Q1017
01:00
V
20 °C 10 km+ - 130° 130° 2 kt METAR SBGR 110400Z 13002KT 9999 FEW015 20/20 Q1017
00:00
V
21 °C 10 km+ - 130° 130° 2 kt METAR SBGR 110300Z 13002KT 9999 SCT015 21/20 Q1017

April 10, 2024

Time Code Weather Temp. Visibility Ceiling Wind METAR/SPECI
23:00
M
21 °C 10 km+ 1,200 ft 140° 140° 2 kt METAR SBGR 110200Z 14002KT 9999 BKN012 21/19 Q1017
22:00
M
21 °C 8 km 1,100 ft 150° 150° 3 kt METAR SBGR 110100Z 15003KT 8000 BKN011 21/20 Q1017
21:00
M
22 °C 6 km 1,100 ft 130° 130° 2 kt METAR SBGR 110000Z 13002KT 6000 OVC011 22/20 Q1016
20:00
M
22 °C 6 km 1,100 ft 120° 120° 4 kt METAR SBGR 102300Z 12004KT 6000 BKN011 22/20 Q1016
19:00
M
23 °C 5 km 1,100 ft 190° 190° 3 kt METAR SBGR 102200Z 19003KT 5000 BR OVC011 23/20 Q1015
18:00
I
23 °C 4 km 1,100 ft 210° 210° 3 kt METAR SBGR 102100Z 21003KT 4000 BR OVC011 23/21 Q1015
17:00
M
23 °C 5 km 1,100 ft 160° 160° 6 kt METAR SBGR 102000Z 16006KT 5000 BR OVC011 23/21 Q1015
16:32
I
24 °C 4 km 4,500 ft 160° 160° 9 kt METAR SBGR 101932Z 16009KT 4000 HZ VCSH FEW045 BKN045 FEW050TCU 24/21 Q1014
16:00
V
27 °C 8 km 4,500 ft 170° 170° 7 kt METAR SBGR 101900Z 17007KT 8000 VCSH BKN045 FEW050TCU 27/21 Q1014
15:00
V
30 °C 10 km+ 4,500 ft 270° 270° 7 kt METAR SBGR 101800Z 27007KT 9999 BKN045 FEW050TCU 30/17 Q1014
14:00
V
30 °C 10 km+ 4,500 ft 310° 310° 7 kt METAR SBGR 101700Z 31007KT 9999 BKN045 FEW050TCU 30/18 Q1014
13:00
V
29 °C 10 km+ 4,000 ft 340° 340° 5 kt METAR SBGR 101600Z 34005KT 9999 BKN040 FEW045TCU 29/17 Q1015
12:00
V
28 °C 10 km+ - 040° 040° 3 kt METAR SBGR 101500Z 04003KT 9999 SCT040 FEW045TCU 28/20 Q1016
11:00
V
26 °C 10 km+ - 030° 030° 3 kt METAR SBGR 101400Z 03003KT 9999 FEW025 26/21 Q1017
10:00
V
24 °C 10 km+ - 050° 050° 7 kt METAR SBGR 101300Z 05007KT CAVOK 24/20 Q1018
09:00
M
21 °C 7 km - 070° 070° 4 kt METAR SBGR 101200Z 07004KT 7000 SCT005 21/20 Q1018
08:00
L
19 °C 800 m 200 ft 080° 080° 4 kt METAR SBGR 101100Z 08004KT 0800 R28L/1200U R10R/1500U R28R/1500N R10L/1900U FG BKN002 19/19 Q1018
07:00
L
19 °C 900 m 200 ft 070° 070° 4 kt METAR SBGR 101000Z 07004KT 0900 R10R/0650U R28L/0650N R10L/0750D R28R/0800N FG BKN002 19/19 Q1017
06:25
L
19 °C 900 m - 060° 060° 6 kt METAR SBGR 100925Z 06006KT 0900 R28R/0450D R28L/0700D R10R/P2000 R10L/P2000 FG SCT001 19/19 Q1016
06:00
V
19 °C 9 km - 060° 060° 6 kt METAR SBGR 100900Z 06006KT 9000 3000E SCT003 19/18 Q1016
05:00
V
18 °C 10 km+ - 120° 120° 2 kt METAR SBGR 100800Z 12002KT CAVOK 18/18 Q1015
04:00
V
19 °C 10 km+ - 060° 060° 3 kt METAR SBGR 100700Z 06003KT CAVOK 19/18 Q1015
03:00
V
19 °C 10 km+ - 060° 060° 5 kt METAR SBGR 100600Z 06005KT CAVOK 19/18 Q1016
Report a change